You are listening to:
LTBA Gnd/Twr/App - Istanbul, Turkey

LTBA 241620Z 04017KT 9999 BKN035 13/08 Q1029 NOSIG RMK RWY23 04015KT

If stream doesn't start automatically press the play button
If stream stops then reload player then press play